Terminal Aerodrome Forecast
Issued by NWS Buffalo, NY

Home | Current Version | Previous Version | Text Only | Print | Product List | Glossary On
Versions: 1 2 3 4 5 6 7 8 9 10 11 12 13 14 15 16 17 18 19 20 21 22 23 24 25 26
000
FTUS41 KBUF 261747 RRA
TAFROC
TAF
KROC 261747Z 2618/2718 13009KT P6SM BKN015
     FM262100 15012G18KT P6SM BKN020
     FM270300 16013G21KT 6SM -RA OVC045
     FM271000 18009KT P6SM OVC035
     FM271500 21008KT P6SM BKN030=

USA.gov is the U.S. government's official web portal to all federal, state and local government web resources and services.